createdAt,value
2023-04-22T00:01:44.166Z,98253.16
2023-04-22T00:04:47.433Z,98265.69
2023-04-22T00:07:50.303Z,98264.59
2023-04-22T00:10:53.119Z,98262.19
2023-04-22T00:13:56.035Z,98264.38
2023-04-22T00:16:58.909Z,98268.28
2023-04-22T00:20:01.574Z,98264.00
2023-04-22T00:23:04.470Z,98254.31
2023-04-22T00:26:07.031Z,98262.66
2023-04-22T00:29:10.306Z,98260.12
2023-04-22T00:32:13.035Z,98254.06
2023-04-22T00:35:16.020Z,98260.38
2023-04-22T00:38:18.657Z,98256.91
2023-04-22T00:41:21.624Z,98257.94
2023-04-22T00:44:24.957Z,98246.56
2023-04-22T00:47:28.151Z,98254.78
2023-04-22T00:50:30.920Z,98254.84
2023-04-22T00:53:33.998Z,98249.59
2023-04-22T00:56:38.553Z,98246.97
2023-04-22T00:59:42.759Z,98244.38
2023-04-22T01:02:45.520Z,98246.22
2023-04-22T01:05:48.977Z,98250.34
2023-04-22T01:08:51.598Z,98249.31
2023-04-22T01:11:54.859Z,98257.38
2023-04-22T01:14:57.502Z,98253.97
2023-04-22T01:18:01.845Z,98254.41
2023-04-22T01:21:05.677Z,98258.41
2023-04-22T01:24:09.028Z,98264.22
2023-04-22T01:27:12.276Z,98262.28
2023-04-22T01:30:15.968Z,98269.00
2023-04-22T01:33:18.841Z,98262.94
2023-04-22T01:36:21.769Z,98272.09
2023-04-22T01:39:24.444Z,98266.88
2023-04-22T01:42:27.593Z,98272.31
2023-04-22T01:45:30.277Z,98267.03
2023-04-22T01:48:33.262Z,98270.75
2023-04-22T01:51:35.880Z,98269.09
2023-04-22T01:54:39.101Z,98269.97
2023-04-22T01:57:41.825Z,98264.59
2023-04-22T02:00:45.194Z,98273.66
2023-04-22T02:03:48.211Z,98265.66
2023-04-22T02:06:50.780Z,98267.41
2023-04-22T02:09:54.196Z,98257.72
2023-04-22T02:12:57.140Z,98257.00
2023-04-22T02:16:00.188Z,98252.66
2023-04-22T02:19:03.390Z,98252.88
2023-04-22T02:22:07.015Z,98256.53
2023-04-22T02:25:12.308Z,98254.91
2023-04-22T02:28:14.941Z,98259.41
2023-04-22T02:31:18.027Z,98253.34
2023-04-22T02:34:20.909Z,98248.03
2023-04-22T02:37:23.919Z,98253.31
2023-04-22T02:40:26.802Z,98250.66
2023-04-22T02:43:29.927Z,98252.44
2023-04-22T02:46:32.525Z,98246.19
2023-04-22T02:49:36.075Z,98246.19
2023-04-22T02:52:39.375Z,98248.03
2023-04-22T02:55:42.589Z,98252.50
2023-04-22T02:58:45.442Z,98255.94
2023-04-22T03:01:48.593Z,98252.28
2023-04-22T03:04:54.331Z,98254.97
2023-04-22T03:07:57.600Z,98253.31
2023-04-22T03:11:00.135Z,98254.38
2023-04-22T03:14:03.081Z,98266.09
2023-04-22T03:17:05.718Z,98263.34
2023-04-22T03:20:09.148Z,98259.78
2023-04-22T03:23:13.082Z,98255.19
2023-04-22T03:26:16.194Z,98255.06
2023-04-22T03:29:18.963Z,98248.69
2023-04-22T03:32:22.066Z,98252.22
2023-04-22T03:35:26.455Z,98258.41
2023-04-22T03:38:29.693Z,98267.41
2023-04-22T03:41:32.345Z,98264.78
2023-04-22T03:44:35.629Z,98271.28
2023-04-22T03:47:39.224Z,98274.41
2023-04-22T03:50:43.107Z,98268.69
2023-04-22T03:53:45.961Z,98280.28
2023-04-22T03:56:51.255Z,98283.12
2023-04-22T03:59:55.263Z,98280.44
2023-04-22T04:02:58.259Z,98285.69
2023-04-22T04:06:01.789Z,98282.00
2023-04-22T04:09:05.625Z,98285.28
2023-04-22T04:12:08.789Z,98278.03
2023-04-22T04:15:14.030Z,98282.09
2023-04-22T04:18:17.569Z,98285.47
2023-04-22T04:21:22.096Z,98284.34
2023-04-22T04:24:25.922Z,98284.03
2023-04-22T04:27:29.635Z,98289.22
2023-04-22T04:30:33.643Z,98296.06
2023-04-22T04:33:37.323Z,98296.75
2023-04-22T04:36:40.607Z,98291.34
2023-04-22T04:39:43.621Z,98299.28
2023-04-22T04:42:47.123Z,98293.81
2023-04-22T04:45:50.463Z,98299.13
2023-04-22T04:48:54.086Z,98310.78
2023-04-22T04:51:57.954Z,98305.31
2023-04-22T04:55:01.621Z,98312.38
2023-04-22T04:58:05.736Z,98314.06
2023-04-22T05:01:08.761Z,98320.19
2023-04-22T05:04:11.703Z,98310.28
2023-04-22T05:07:15.441Z,98318.94
2023-04-22T05:10:18.269Z,98322.13
2023-04-22T05:13:22.486Z,98318.31
2023-04-22T05:16:25.392Z,98329.59
2023-04-22T05:19:28.401Z,98320.38
2023-04-22T05:22:31.778Z,98322.69
2023-04-22T05:25:34.853Z,98319.59
2023-04-22T05:28:38.545Z,98324.44
2023-04-22T05:31:41.775Z,98320.31
2023-04-22T05:34:44.834Z,98324.13
2023-04-22T05:37:47.879Z,98328.97
2023-04-22T05:40:50.884Z,98325.06
2023-04-22T05:43:54.892Z,98323.66
2023-04-22T05:46:57.604Z,98323.41
2023-04-22T05:50:01.106Z,98328.34
2023-04-22T05:53:04.572Z,98332.41
2023-04-22T05:56:07.430Z,98327.62
2023-04-22T05:59:10.354Z,98337.06
2023-04-22T06:02:14.143Z,98337.47
2023-04-22T06:05:17.265Z,98330.69
2023-04-22T06:08:20.365Z,98334.50
2023-04-22T06:11:26.574Z,98331.44
2023-04-22T06:14:29.197Z,98340.88
2023-04-22T06:17:32.237Z,98338.44
2023-04-22T06:20:35.985Z,98337.00
2023-04-22T06:23:39.060Z,98340.59
2023-04-22T06:26:42.008Z,98344.19
2023-04-22T06:29:45.537Z,98355.91
2023-04-22T06:32:48.279Z,98354.31
2023-04-22T06:35:51.323Z,98351.88
2023-04-22T06:38:54.505Z,98350.81
2023-04-22T06:41:57.528Z,98362.63
2023-04-22T06:45:01.143Z,98350.19
2023-04-22T06:48:04.153Z,98355.94
2023-04-22T06:51:09.894Z,98353.84
2023-04-22T06:54:13.119Z,98354.34
2023-04-22T06:57:15.656Z,98351.28
2023-04-22T07:00:18.760Z,98349.03
2023-04-22T07:03:22.692Z,98350.19
2023-04-22T07:06:30.716Z,98357.69
2023-04-22T07:09:34.002Z,98361.84
2023-04-22T07:12:37.320Z,98352.47
2023-04-22T07:15:39.880Z,98357.31
2023-04-22T07:18:42.706Z,98359.34
2023-04-22T07:21:45.636Z,98360.31
2023-04-22T07:24:48.715Z,98362.22
2023-04-22T07:27:51.321Z,98373.44
2023-04-22T07:30:54.608Z,98359.16
2023-04-22T07:33:57.146Z,98366.09
2023-04-22T07:37:00.110Z,98363.41
2023-04-22T07:40:02.820Z,98373.34
2023-04-22T07:43:06.064Z,98369.72
2023-04-22T07:46:08.690Z,98369.31
2023-04-22T07:49:14.241Z,98370.94
2023-04-22T07:52:16.988Z,98374.44
2023-04-22T07:55:19.774Z,98369.03
2023-04-22T07:58:22.376Z,98377.28
2023-04-22T08:01:25.385Z,98369.44
2023-04-22T08:04:28.650Z,98374.66
2023-04-22T08:07:33.474Z,98367.88
2023-04-22T08:10:36.757Z,98368.38
2023-04-22T08:13:39.356Z,98367.75
2023-04-22T08:16:42.244Z,98361.97
2023-04-22T08:19:45.334Z,98375.94
2023-04-22T08:22:50.540Z,98358.25
2023-04-22T08:25:53.181Z,98371.75
2023-04-22T08:28:56.110Z,98371.09
2023-04-22T08:31:58.625Z,98374.34
2023-04-22T08:35:04.976Z,98374.91
2023-04-22T08:38:09.134Z,98378.22
2023-04-22T08:41:12.643Z,98386.34
2023-04-22T08:44:15.438Z,98384.38
2023-04-22T08:47:19.426Z,98393.19
2023-04-22T08:50:22.537Z,98384.50
2023-04-22T08:53:25.535Z,98391.19
2023-04-22T08:56:29.166Z,98380.47
2023-04-22T08:59:32.454Z,98379.88
2023-04-22T09:02:37.246Z,98379.97
2023-04-22T09:05:41.182Z,98379.44
2023-04-22T09:08:43.986Z,98381.31
2023-04-22T09:11:46.851Z,98381.41
2023-04-22T09:14:49.564Z,98377.75
2023-04-22T09:17:52.564Z,98375.91
2023-04-22T09:20:57.054Z,98371.59
2023-04-22T09:24:02.432Z,98371.22
2023-04-22T09:27:05.061Z,98365.62
2023-04-22T09:30:09.353Z,98375.53
2023-04-22T09:33:13.835Z,98376.09
2023-04-22T09:36:16.803Z,98370.94
2023-04-22T09:39:19.457Z,98369.22
2023-04-22T09:42:22.562Z,98370.22
2023-04-22T09:45:27.559Z,98371.94
2023-04-22T09:48:30.610Z,98364.88
2023-04-22T09:51:34.516Z,98356.00
2023-04-22T09:54:37.866Z,98355.13
2023-04-22T09:57:40.572Z,98360.03
2023-04-22T10:00:49.555Z,98353.41
2023-04-22T10:03:52.674Z,98351.81
2023-04-22T10:06:55.633Z,98354.25
2023-04-22T10:09:58.530Z,98347.37
2023-04-22T10:13:02.408Z,98342.31
2023-04-22T10:16:06.967Z,98340.56
2023-04-22T10:19:13.959Z,98338.97
2023-04-22T10:22:17.364Z,98336.06
2023-04-22T10:25:26.849Z,98328.22
2023-04-22T10:28:30.795Z,98322.69
2023-04-22T10:31:33.539Z,98321.91
2023-04-22T10:34:37.289Z,98324.31
2023-04-22T10:37:44.648Z,98320.09
2023-04-22T10:41:00.412Z,98325.31
2023-04-22T10:44:07.661Z,98328.50
2023-04-22T10:47:10.628Z,98322.44
2023-04-22T10:50:24.844Z,98317.59
2023-04-22T10:53:37.747Z,98311.78
2023-04-22T10:57:05.170Z,98313.66
2023-04-22T11:00:52.213Z,98317.63
2023-04-22T11:04:20.821Z,98313.09
2023-04-22T11:07:27.280Z,98314.50
2023-04-22T11:10:43.001Z,98315.87
2023-04-22T11:13:51.028Z,98310.03
2023-04-22T11:16:54.240Z,98310.66
2023-04-22T11:20:01.016Z,98311.22
2023-04-22T11:23:04.366Z,98311.19
2023-04-22T11:26:07.532Z,98315.09
2023-04-22T11:29:10.353Z,98307.25
2023-04-22T11:32:13.237Z,98306.09
2023-04-22T11:35:27.013Z,98306.06
2023-04-22T11:38:30.206Z,98304.22
2023-04-22T11:41:32.747Z,98304.94
2023-04-22T11:44:35.655Z,98306.59
2023-04-22T11:47:38.162Z,98297.25
2023-04-22T11:50:44.167Z,98303.88
2023-04-22T11:53:51.504Z,98303.19
2023-04-22T11:56:54.632Z,98295.09
2023-04-22T11:59:59.337Z,98295.34
2023-04-22T12:03:08.150Z,98298.84
2023-04-22T12:06:11.436Z,98299.41
2023-04-22T12:09:14.146Z,98299.56
2023-04-22T12:12:26.124Z,98298.84
2023-04-22T12:15:37.890Z,98299.13
2023-04-22T12:18:48.209Z,98295.38
2023-04-22T12:21:50.721Z,98299.03
2023-04-22T12:24:54.161Z,98294.31
2023-04-22T12:27:57.630Z,98288.63
2023-04-22T12:31:01.539Z,98289.19
2023-04-22T12:34:04.326Z,98295.22
2023-04-22T12:37:07.233Z,98283.44
2023-04-22T12:40:10.473Z,98290.19
2023-04-22T12:43:13.486Z,98291.06
2023-04-22T12:46:16.763Z,98289.09
2023-04-22T12:49:19.897Z,98286.44
2023-04-22T12:52:22.557Z,98284.50
2023-04-22T12:55:26.123Z,98281.97
2023-04-22T12:58:29.216Z,98284.56
2023-04-22T13:01:33.838Z,98282.34
2023-04-22T13:04:37.985Z,98276.03
2023-04-22T13:07:45.442Z,98273.28
2023-04-22T13:10:49.582Z,98272.22
2023-04-22T13:13:52.667Z,98258.63
2023-04-22T13:16:55.371Z,98269.09
2023-04-22T13:19:59.132Z,98267.28
2023-04-22T13:23:02.409Z,98265.63
2023-04-22T13:26:05.850Z,98256.28
2023-04-22T13:29:12.531Z,98252.81
2023-04-22T13:32:15.474Z,98252.75
2023-04-22T13:35:18.610Z,98252.28
2023-04-22T13:38:21.565Z,98248.16
2023-04-22T13:41:24.148Z,98258.75
2023-04-22T13:44:27.246Z,98249.81
2023-04-22T13:47:29.869Z,98242.66
2023-04-22T13:50:34.088Z,98226.75
2023-04-22T13:53:36.719Z,98245.97
2023-04-22T13:56:39.774Z,98241.19
2023-04-22T13:59:42.584Z,98230.22
2023-04-22T14:02:45.912Z,98233.09
2023-04-22T14:05:48.946Z,98229.38
2023-04-22T14:08:51.653Z,98229.19
2023-04-22T14:11:54.654Z,98234.44
2023-04-22T14:14:57.292Z,98234.69
2023-04-22T14:18:00.310Z,98235.28
2023-04-22T14:21:06.034Z,98230.81
2023-04-22T14:24:09.362Z,98236.91
2023-04-22T14:27:12.525Z,98236.28
2023-04-22T14:30:16.593Z,98236.22
2023-04-22T14:33:20.123Z,98232.41
2023-04-22T14:36:22.984Z,98232.66
2023-04-22T14:39:25.849Z,98232.81
2023-04-22T14:42:28.787Z,98223.41
2023-04-22T14:45:32.107Z,98220.47
2023-04-22T14:48:35.635Z,98225.44
2023-04-22T14:51:38.294Z,98231.75
2023-04-22T14:54:41.176Z,98230.78
2023-04-22T14:57:43.915Z,98230.03
2023-04-22T15:00:48.566Z,98226.38
2023-04-22T15:03:52.193Z,98222.00
2023-04-22T15:06:57.664Z,98226.63
2023-04-22T15:10:00.839Z,98218.97
2023-04-22T15:13:04.289Z,98229.66
2023-04-22T15:16:06.893Z,98220.41
2023-04-22T15:19:09.998Z,98223.38
2023-04-22T15:22:13.073Z,98224.09
2023-04-22T15:25:18.080Z,98224.50
2023-04-22T15:28:21.243Z,98218.19
2023-04-22T15:31:24.068Z,98220.03
2023-04-22T15:34:26.662Z,98223.66
2023-04-22T15:37:29.604Z,98225.25
2023-04-22T15:40:32.942Z,98221.38
2023-04-22T15:43:35.838Z,98221.78
2023-04-22T15:46:38.741Z,98230.72
2023-04-22T15:49:42.006Z,98218.94
2023-04-22T15:52:45.061Z,98215.09
2023-04-22T15:55:48.767Z,98221.28
2023-04-22T15:59:00.502Z,98225.66
2023-04-22T16:02:03.475Z,98224.09
2023-04-22T16:05:06.751Z,98219.59
2023-04-22T16:08:10.341Z,98217.53
2023-04-22T16:11:15.029Z,98213.44
2023-04-22T16:14:17.606Z,98212.78
2023-04-22T16:17:21.042Z,98218.37
2023-04-22T16:20:24.313Z,98210.19
2023-04-22T16:23:28.121Z,98210.59
2023-04-22T16:26:31.050Z,98196.47
2023-04-22T16:29:34.004Z,98199.31
2023-04-22T16:32:37.098Z,98193.13
2023-04-22T16:35:40.837Z,98196.97
2023-04-22T16:38:43.553Z,98200.91
2023-04-22T16:41:46.669Z,98200.03
2023-04-22T16:44:49.621Z,98199.53
2023-04-22T16:47:52.611Z,98197.31
2023-04-22T16:50:55.328Z,98196.50
2023-04-22T16:53:58.396Z,98193.38
2023-04-22T16:57:01.600Z,98195.97
2023-04-22T17:00:07.464Z,98195.72
2023-04-22T17:03:11.973Z,98196.16
2023-04-22T17:06:15.016Z,98185.22
2023-04-22T17:09:17.627Z,98197.56
2023-04-22T17:12:20.805Z,98189.44
2023-04-22T17:15:23.534Z,98190.66
2023-04-22T17:18:26.743Z,98188.44
2023-04-22T17:21:29.700Z,98190.66
2023-04-22T17:24:32.657Z,98193.53
2023-04-22T17:27:35.360Z,98196.66
2023-04-22T17:30:39.898Z,98190.72
2023-04-22T17:33:42.690Z,98193.66
2023-04-22T17:36:45.706Z,98185.63
2023-04-22T17:39:48.667Z,98200.19
2023-04-22T17:42:52.075Z,98198.78
2023-04-22T17:45:54.977Z,98191.41
2023-04-22T17:48:57.988Z,98192.91
2023-04-22T17:52:00.715Z,98202.91
2023-04-22T17:55:04.748Z,98211.94
2023-04-22T17:58:07.951Z,98205.62
2023-04-22T18:01:10.944Z,98210.63
2023-04-22T18:04:14.134Z,98219.38
2023-04-22T18:07:16.950Z,98213.84
2023-04-22T18:10:20.134Z,98216.78
2023-04-22T18:13:22.800Z,98222.09
2023-04-22T18:16:25.824Z,98224.25
2023-04-22T18:19:28.756Z,98229.88
2023-04-22T18:22:31.790Z,98238.56
2023-04-22T18:25:34.412Z,98241.47
2023-04-22T18:28:43.399Z,98234.53
2023-04-22T18:31:46.193Z,98234.38
2023-04-22T18:34:49.171Z,98238.47
2023-04-22T18:37:51.923Z,98229.00
2023-04-22T18:40:55.465Z,98237.28
2023-04-22T18:43:58.064Z,98238.84
2023-04-22T18:47:01.230Z,98240.03
2023-04-22T18:50:04.496Z,98250.31
2023-04-22T18:53:07.716Z,98251.47
2023-04-22T18:56:10.782Z,98247.16
2023-04-22T18:59:13.957Z,98252.00
2023-04-22T19:02:16.960Z,98252.66
2023-04-22T19:05:21.356Z,98254.78
2023-04-22T19:08:24.152Z,98249.56
2023-04-22T19:11:27.522Z,98252.47
2023-04-22T19:14:30.632Z,98234.19
2023-04-22T19:17:34.872Z,98230.13
2023-04-22T19:20:38.635Z,98236.25
2023-04-22T19:23:42.193Z,98239.53
2023-04-22T19:26:45.549Z,98244.84
2023-04-22T19:29:53.420Z,98244.47
2023-04-22T19:32:56.549Z,98236.44
2023-04-22T19:35:59.654Z,98248.63
2023-04-22T19:39:02.249Z,98249.41
2023-04-22T19:42:05.412Z,98236.81
2023-04-22T19:45:10.646Z,98238.16
2023-04-22T19:48:13.988Z,98238.16
2023-04-22T19:51:16.961Z,98243.91
2023-04-22T19:54:21.747Z,98246.13
2023-04-22T19:57:24.970Z,98250.31
2023-04-22T20:00:35.466Z,98240.37
2023-04-22T20:03:39.047Z,98238.72
2023-04-22T20:06:44.866Z,98238.31
2023-04-22T20:09:49.033Z,98239.47
2023-04-22T20:12:54.091Z,98250.56
2023-04-22T20:15:59.536Z,98242.72
2023-04-22T20:19:02.828Z,98240.72
2023-04-22T20:22:08.780Z,98245.91
2023-04-22T20:25:13.898Z,98250.38
2023-04-22T20:28:17.282Z,98246.00
2023-04-22T20:31:20.751Z,98241.66
2023-04-22T20:34:24.759Z,98249.00
2023-04-22T20:37:28.644Z,98241.84
2023-04-22T20:40:33.645Z,98237.84
2023-04-22T20:43:36.620Z,98243.44
2023-04-22T20:46:39.699Z,98242.75
2023-04-22T20:49:43.426Z,98241.34
2023-04-22T20:52:47.689Z,98235.09
2023-04-22T20:55:50.983Z,98235.44
2023-04-22T20:58:53.815Z,98235.34
2023-04-22T21:01:56.874Z,98236.47
2023-04-22T21:05:00.593Z,98242.94
2023-04-22T21:08:05.962Z,98239.38
2023-04-22T21:11:09.150Z,98236.75
2023-04-22T21:14:11.905Z,98234.91
2023-04-22T21:17:25.254Z,98235.09
2023-04-22T21:20:28.834Z,98238.75
2023-04-22T21:23:32.465Z,98239.91
2023-04-22T21:26:36.208Z,98244.34
2023-04-22T21:29:39.528Z,98242.78
2023-04-22T21:32:42.375Z,98237.38
2023-04-22T21:35:45.469Z,98237.53
2023-04-22T21:38:50.122Z,98235.81
2023-04-22T21:41:53.155Z,98228.47
2023-04-22T21:44:56.340Z,98241.75
2023-04-22T21:47:59.547Z,98239.97
2023-04-22T21:51:02.323Z,98246.28
2023-04-22T21:54:05.421Z,98243.81
2023-04-22T21:57:08.130Z,98241.13
2023-04-22T22:00:18.659Z,98240.34
2023-04-22T22:03:21.868Z,98241.37
2023-04-22T22:06:25.461Z,98238.84
2023-04-22T22:09:28.496Z,98249.03
2023-04-22T22:12:31.357Z,98249.44
2023-04-22T22:15:34.597Z,98242.53
2023-04-22T22:18:38.008Z,98248.03
2023-04-22T22:21:41.466Z,98243.91
2023-04-22T22:24:44.412Z,98245.81
2023-04-22T22:27:49.117Z,98249.56
2023-04-22T22:30:52.154Z,98253.00
2023-04-22T22:33:55.493Z,98255.69
2023-04-22T22:36:58.155Z,98254.81
2023-04-22T22:40:01.866Z,98258.31
2023-04-22T22:43:04.797Z,98258.38
2023-04-22T22:46:07.702Z,98255.69
2023-04-22T22:49:10.876Z,98261.25
2023-04-22T22:52:14.089Z,98263.50
2023-04-22T22:55:16.799Z,98252.06
2023-04-22T22:58:19.623Z,98266.44
2023-04-22T23:01:22.486Z,98260.09
2023-04-22T23:04:26.164Z,98267.12
2023-04-22T23:07:29.149Z,98264.00
2023-04-22T23:10:32.234Z,98266.47
2023-04-22T23:13:34.940Z,98258.16
2023-04-22T23:16:38.499Z,98262.06
2023-04-22T23:19:41.545Z,98252.53
2023-04-22T23:22:45.479Z,98263.25
2023-04-22T23:25:48.522Z,98260.63
2023-04-22T23:28:52.585Z,98257.78
2023-04-22T23:31:55.985Z,98257.78
2023-04-22T23:35:00.674Z,98257.69
2023-04-22T23:38:04.440Z,98255.00
2023-04-22T23:41:07.753Z,98256.19
2023-04-22T23:44:11.144Z,98262.94
2023-04-22T23:47:14.665Z,98251.34
2023-04-22T23:50:19.205Z,98253.00
2023-04-22T23:53:22.273Z,98252.06
2023-04-22T23:56:26.509Z,98257.13
2023-04-22T23:59:29.730Z,98256.41
